Wetterdaten: Mrz 2013
Datum Temp Feuchte Luftdruck Regen Wind Richtung Sonnenschein UV Solar Windben
01.03.2013 0,5 C 91 % 1024,8 hPa 0,2 l/m 1,0 km/h N-NW 0,00 h 0,9 UV-I 88 W/m 4,8 km/h
02.03.2013 -0,3 C 86 % 1023,8 hPa 0,2 l/m 0,9 km/h W 8,58 h 1,4 UV-I 297 W/m 5,6 km/h
03.03.2013 0,1 C 95 % 1023,4 hPa 0,8 l/m 1,2 km/h W 0,00 h 1,0 UV-I 113 W/m 4,0 km/h
04.03.2013 2,7 C 80 % 1019,2 hPa 0,0 l/m 11,2 km/h S-SO 8,50 h 1,6 UV-I 305 W/m 21,7 km/h
05.03.2013 4,1 C 73 % 1009,7 hPa 0,0 l/m 0,3 km/h S-SO 8,75 h 1,5 UV-I 318 W/m 2,4 km/h
06.03.2013 6,6 C 68 % 1004,2 hPa 0,0 l/m 2,0 km/h O-SO 8,33 h 1,4 UV-I 293 W/m 2,8 km/h
07.03.2013 6,2 C 81 % 1001,3 hPa 0,0 l/m 0,4 km/h SO 0,00 h 0,8 UV-I 95 W/m 4,8 km/h
08.03.2013 3,4 C 95 % 1002,1 hPa 2,0 l/m 3,8 km/h O-SO 0,75 h 1,0 UV-I 113 W/m 19,3 km/h
09.03.2013 4,1 C 98 % 999,9 hPa 11,6 l/m 4,2 km/h S-SO 0,00 h 0,6 UV-I 40 W/m 12,9 km/h
10.03.2013 -2,3 C 96 % 1001,2 hPa 4,6 l/m 1,9 km/h N-NO 0,00 h 0,5 UV-I 45 W/m 10,9 km/h
11.03.2013 -5,2 C 87 % 1007,0 hPa 0,0 l/m 1,9 km/h N-NO 0,25 h 0,7 UV-I 95 W/m 11,7 km/h
12.03.2013 -5,1 C 89 % 1005,0 hPa 0,8 l/m 2,6 km/h N-NO 0,00 h 0,5 UV-I 65 W/m 8,4 km/h
13.03.2013 -4,7 C 82 % 1006,8 hPa 0,0 l/m 0,3 km/h W 7,42 h 1,5 UV-I 322 W/m 1,6 km/h
14.03.2013 -5,5 C 87 % 1012,0 hPa 0,6 l/m 0,7 km/h N-NW 1,17 h 1,0 UV-I 145 W/m 3,2 km/h
15.03.2013 -4,5 C 75 % 1016,5 hPa 0,0 l/m 1,3 km/h S 8,75 h 1,6 UV-I 351 W/m 4,4 km/h
16.03.2013 2,1 C 62 % 1010,8 hPa 0,2 l/m 18,4 km/h S-SO 4,67 h 1,4 UV-I 244 W/m 31,0 km/h
17.03.2013 0,6 C 84 % 999,9 hPa 1,0 l/m 10,2 km/h SO 0,42 h 0,7 UV-I 86 W/m 22,1 km/h
18.03.2013 2,6 C 88 % 994,6 hPa 0,6 l/m 0,4 km/h SO 6,33 h 1,3 UV-I 266 W/m 2,8 km/h
19.03.2013 -0,0 C 90 % 1000,0 hPa 0,0 l/m 0,3 km/h N 0,00 h 0,8 UV-I 96 W/m 5,6 km/h
20.03.2013 -1,4 C 94 % 1005,9 hPa 5,2 l/m 1,5 km/h N-NO 0,17 h 0,7 UV-I 83 W/m 9,3 km/h
21.03.2013 -1,1 C 93 % 1018,8 hPa 0,2 l/m 1,0 km/h NW 0,08 h 1,0 UV-I 59 W/m 3,6 km/h
22.03.2013 -2,3 C 85 % 1019,7 hPa 0,0 l/m 3,2 km/h O-SO 1,75 h 1,5 UV-I 173 W/m 16,5 km/h
23.03.2013 -4,8 C 64 % 1020,3 hPa 0,0 l/m 11,9 km/h O-SO 6,92 h 1,8 UV-I 257 W/m 27,8 km/h
24.03.2013 -4,4 C 54 % 1019,1 hPa 0,0 l/m 8,2 km/h O 10,17 h 1,9 UV-I 336 W/m 25,3 km/h
25.03.2013 -3,6 C 67 % 1016,6 hPa 0,0 l/m 5,4 km/h O-NO 9,58 h 1,9 UV-I 378 W/m 23,3 km/h
26.03.2013 -2,7 C 67 % 1015,0 hPa 0,0 l/m 3,0 km/h O-NO 10,00 h 1,8 UV-I 370 W/m 12,1 km/h
27.03.2013 -1,8 C 65 % 1012,9 hPa 0,2 l/m 4,8 km/h O 9,50 h 1,8 UV-I 359 W/m 18,1 km/h
28.03.2013 -1,8 C 86 % 1009,3 hPa 0,0 l/m 0,5 km/h O-SO 1,17 h 1,1 UV-I 161 W/m 4,0 km/h
29.03.2013 -1,7 C 92 % 1007,8 hPa 0,2 l/m 0,7 km/h W 0,00 h 0,8 UV-I 100 W/m 3,2 km/h
30.03.2013 -0,7 C 91 % 1008,7 hPa 0,2 l/m 1,4 km/h N-NO 1,42 h 1,1 UV-I 173 W/m 4,4 km/h
31.03.2013 -1,3 C 87 % 1012,3 hPa 0,2 l/m 2,5 km/h N-NO 1,08 h 0,9 UV-I 145 W/m 5,6 km/h
Min-Datum 15.03.13 06.03.13 18.03.13 17 Tage 01.03.13 - - - - 01.03.13
Min-Zeit 06:05 14:00 16:35 - 00:00 - - - - 00:00
Minimum -13,8 C 34 % 993,6 hPa - 0,0 km/h - - - - 0,0 km/h
Max-Datum 06.03.13 17.03.13 02.03.13 09.03.13 16.03.13 - 24.03.13 22.03.13 28.03.13 23.03.13
Max-Zeit 13:50 15:15 00:45 22:50 16:25 - 17:10 13:10 12:15 10:40
Maximum 15,0 C 100 % 1026,5 hPa 11,6 l/m 31,2 km/h
S-SO
- 10,08 h 3,6 UV-I 844 W/m 53,1 km/h
O-SO
Durchschnitt -0,7 C 82 % 1010,6 hPa #28,8 l/m 3,5 km/h N-NO #115:45 h 1,2 UV-I 193 W/m 10,8 km/h

Durchschnitt Minimum Temp.-4,1 C
Durchschnitt Maximum Temp.2,9 C